Time;durP1;ratioP1;P1;durP2;ratioP2;P2;SDS_P1;SDS_P2;PMS_P1;PMS_P2;Temp;Humidity;BMP_temperature;BMP_pressure;BME280_temperature;BME280_humidity;BME280_pressure;Samples;Min_cycle;Max_cycle;Signal;HPM_P1;HPM_P2
2021/03/15 00:00:58;;;;;;;7.57;5.87;;;5.50;78.00;;;;;;4974786;28;20043;-74
2021/03/15 00:03:24;;;;;;;8.83;6.53;;;5.50;77.90;;;;;;4976031;28;20372;-75
2021/03/15 00:05:50;;;;;;;11.80;7.10;;;5.60;78.00;;;;;;4975912;28;20081;-75
2021/03/15 00:08:15;;;;;;;8.93;6.33;;;5.50;77.80;;;;;;4975832;28;20065;-75
2021/03/15 00:10:41;;;;;;;10.10;6.50;;;5.40;77.70;;;;;;4975724;28;20034;-75
2021/03/15 00:13:10;;;;;;;9.00;5.63;;;5.40;77.70;;;;;;4976236;28;20015;-75
2021/03/15 00:15:36;;;;;;;7.23;4.87;;;5.40;77.50;;;;;;4975580;28;20027;-73
2021/03/15 00:18:03;;;;;;;8.27;5.00;;;5.40;77.40;;;;;;4975718;28;20041;-75
2021/03/15 00:20:29;;;;;;;9.43;5.63;;;5.40;77.30;;;;;;4975448;28;20035;-75
2021/03/15 00:22:55;;;;;;;7.73;5.50;;;5.40;77.10;;;;;;4975078;28;20093;-76
2021/03/15 00:25:21;;;;;;;8.63;5.30;;;5.30;77.00;;;;;;4975439;28;20054;-75
2021/03/15 00:27:47;;;;;;;7.70;5.30;;;5.30;76.90;;;;;;4975511;28;20099;-75
2021/03/15 00:30:16;;;;;;;9.53;5.50;;;5.30;77.00;;;;;;4975320;28;20118;-76
2021/03/15 00:32:43;;;;;;;9.80;6.10;;;5.30;77.00;;;;;;4975076;28;20034;-75
2021/03/15 00:35:11;;;;;;;8.50;5.50;;;5.30;76.50;;;;;;4975412;28;20027;-75
2021/03/15 00:37:37;;;;;;;8.30;5.53;;;5.30;76.20;;;;;;4975142;28;20101;-75
2021/03/15 00:40:05;;;;;;;8.13;5.80;;;5.20;75.80;;;;;;4975159;28;20132;-75
2021/03/15 00:42:31;;;;;;;7.50;5.17;;;5.20;76.00;;;;;;4975272;28;20031;-75
2021/03/15 00:44:57;;;;;;;9.33;5.47;;;5.20;76.30;;;;;;4975409;28;20165;-75
2021/03/15 00:47:22;;;;;;;7.43;5.47;;;5.10;76.30;;;;;;4974710;28;20089;-76
2021/03/15 00:49:48;;;;;;;9.70;5.83;;;5.10;76.70;;;;;;4975179;28;20053;-75
2021/03/15 00:52:14;;;;;;;8.03;5.73;;;5.10;76.80;;;;;;4975068;28;20109;-75
2021/03/15 00:54:39;;;;;;;9.07;5.93;;;5.00;76.60;;;;;;4974881;28;20112;-75
2021/03/15 00:57:05;;;;;;;10.43;5.80;;;5.00;76.60;;;;;;4974820;28;20508;-75
2021/03/15 00:59:31;;;;;;;9.63;6.00;;;5.00;76.70;;;;;;4974732;28;20437;-75
2021/03/15 01:01:56;;;;;;;9.37;5.93;;;5.00;76.40;;;;;;4974679;28;20035;-76
2021/03/15 01:04:22;;;;;;;7.93;5.57;;;4.90;76.50;;;;;;4974482;28;20027;-75
2021/03/15 01:06:48;;;;;;;7.60;5.70;;;4.90;76.50;;;;;;4974756;28;20027;-75
2021/03/15 01:09:14;;;;;;;9.73;6.00;;;4.90;76.90;;;;;;4974424;28;20022;-75
2021/03/15 01:11:40;;;;;;;9.40;6.00;;;4.80;77.00;;;;;;4974407;28;20023;-76
2021/03/15 01:14:07;;;;;;;9.47;6.10;;;4.80;77.10;;;;;;4974805;28;20037;-75
2021/03/15 01:16:33;;;;;;;12.40;5.37;;;4.80;77.30;;;;;;4974449;28;20023;-75
2021/03/15 01:18:59;;;;;;;8.00;5.63;;;4.80;77.40;;;;;;4974671;28;20030;-75
2021/03/15 01:21:25;;;;;;;8.27;5.30;;;4.80;77.10;;;;;;4974508;28;20089;-75
2021/03/15 01:23:51;;;;;;;7.33;5.47;;;4.80;76.70;;;;;;4974453;28;20022;-76
2021/03/15 01:26:17;;;;;;;10.20;5.30;;;4.70;76.40;;;;;;4974294;28;20034;-75
2021/03/15 01:28:42;;;;;;;9.23;5.03;;;4.70;77.00;;;;;;4974151;28;20452;-75
2021/03/15 01:31:08;;;;;;;8.13;4.60;;;4.70;77.10;;;;;;4974222;28;20471;-75
2021/03/15 01:33:34;;;;;;;8.20;5.00;;;4.70;76.80;;;;;;4974465;28;20443;-76
2021/03/15 01:36:00;;;;;;;7.27;5.03;;;4.70;76.60;;;;;;4974370;28;20031;-73
2021/03/15 01:38:26;;;;;;;7.10;5.23;;;4.60;76.40;;;;;;4974106;28;20046;-73
2021/03/15 01:40:52;;;;;;;9.93;4.80;;;4.60;76.60;;;;;;4974138;28;20062;-76
2021/03/15 01:43:18;;;;;;;7.77;4.33;;;4.60;76.90;;;;;;4974221;28;20030;-75
2021/03/15 01:45:44;;;;;;;8.13;4.57;;;4.60;76.70;;;;;;4974328;28;20494;-75
2021/03/15 01:48:13;;;;;;;8.33;4.40;;;4.60;76.50;;;;;;4988999;28;20055;-75
2021/03/15 01:50:45;;;;;;;8.47;4.80;;;4.50;76.50;;;;;;4974100;28;20037;-75
2021/03/15 01:53:13;;;;;;;8.25;4.75;;;4.50;76.70;;;;;;4974322;28;20127;-75
2021/03/15 01:55:40;;;;;;;8.33;5.20;;;4.50;76.70;;;;;;4974303;28;20544;-75
2021/03/15 01:58:06;;;;;;;7.73;5.27;;;4.50;76.70;;;;;;4972785;28;20019;-75
2021/03/15 02:00:32;;;;;;;12.03;4.77;;;4.50;76.80;;;;;;4971266;28;20046;-75
2021/03/15 02:03:03;;;;;;;8.50;4.87;;;4.50;76.80;;;;;;4971485;28;20023;-75
2021/03/15 02:05:31;;;;;;;10.13;4.53;;;4.60;76.80;;;;;;4973180;28;20023;-75
2021/03/15 02:07:56;;;;;;;7.70;4.30;;;4.50;77.10;;;;;;4973718;28;20034;-76
2021/03/15 02:10:23;;;;;;;7.80;4.37;;;4.50;77.10;;;;;;4973648;28;20019;-75
2021/03/15 02:13:30;;;;;;;8.27;4.80;;;4.50;77.10;;;;;;4973384;28;20031;-81
2021/03/15 02:16:05;;;;;;;8.57;4.10;;;4.40;77.50;;;;;;4973340;28;20035;-75
2021/03/15 02:18:42;;;;;;;9.00;4.50;;;4.40;77.70;;;;;;4973871;28;20023;-75
2021/03/15 02:21:38;;;;;;;5.83;4.13;;;4.40;77.50;;;;;;4973729;28;20089;-75
2021/03/15 02:24:04;;;;;;;5.93;3.57;;;4.40;77.50;;;;;;4976679;28;20125;-75
2021/03/15 02:27:03;;;;;;;6.87;5.03;;;4.40;77.30;;;;;;4977716;28;20492;-76
2021/03/15 02:29:37;;;;;;;6.10;4.50;;;4.40;77.60;;;;;;4976070;28;20034;-76
2021/03/15 02:32:40;;;;;;;6.67;3.90;;;4.40;77.70;;;;;;4977630;28;20497;-75
2021/03/15 02:35:10;;;;;;;5.88;3.67;;;4.40;77.70;;;;;;4977126;28;20031;-75
2021/03/15 02:37:47;;;;;;;5.47;4.00;;;4.40;77.70;;;;;;4993485;28;20109;-75
2021/03/15 02:40:53;;;;;;;5.23;3.90;;;4.30;77.50;;;;;;4996925;28;20026;-75
2021/03/15 02:43:50;;;;;;;6.07;4.30;;;4.30;77.40;;;;;;4996495;28;20101;-75
2021/03/15 02:46:21;;;;;;;5.50;3.53;;;4.30;77.60;;;;;;4995040;28;20403;-76
2021/03/15 02:48:51;;;;;;;5.50;3.70;;;4.30;77.60;;;;;;4996541;28;20026;-76
2021/03/15 02:51:22;;;;;;;6.07;4.13;;;4.30;77.60;;;;;;4996446;28;20077;-76
2021/03/15 02:53:48;;;;;;;5.27;3.80;;;4.30;77.50;;;;;;4996725;28;20475;-75
2021/03/15 02:56:25;;;;;;;7.27;4.00;;;4.30;77.40;;;;;;4996480;28;20029;-76
2021/03/15 02:58:55;;;;;;;6.47;4.03;;;4.30;77.30;;;;;;4996347;28;20033;-75
2021/03/15 03:01:24;;;;;;;6.73;4.40;;;4.30;77.40;;;;;;4996696;28;20042;-75
2021/03/15 03:03:53;;;;;;;4.30;3.50;;;4.30;77.50;;;;;;4996572;28;20069;-75
2021/03/15 03:06:21;;;;;;;6.27;4.03;;;4.20;77.50;;;;;;4996509;28;20382;-75
2021/03/15 03:08:50;;;;;;;5.03;3.43;;;4.20;77.40;;;;;;4996224;28;20390;-75
2021/03/15 03:11:17;;;;;;;6.70;3.80;;;4.20;77.10;;;;;;4996427;28;20077;-75
2021/03/15 03:13:44;;;;;;;5.20;3.90;;;4.20;77.00;;;;;;4996275;28;20031;-75
2021/03/15 03:16:10;;;;;;;4.67;3.60;;;4.20;77.10;;;;;;4996000;28;20376;-75
2021/03/15 03:18:38;;;;;;;6.13;3.40;;;4.20;77.10;;;;;;4996038;28;20053;-75
2021/03/15 03:21:06;;;;;;;5.50;3.27;;;4.20;77.00;;;;;;4996073;28;20034;-76
2021/03/15 03:23:36;;;;;;;5.33;3.40;;;4.20;77.20;;;;;;4996039;28;20061;-76
2021/03/15 03:26:04;;;;;;;5.43;3.40;;;4.20;77.00;;;;;;4996087;28;20030;-73
2021/03/15 03:28:32;;;;;;;4.50;3.20;;;4.10;76.60;;;;;;4995947;28;20360;-75
2021/03/15 03:31:04;;;;;;;5.13;3.30;;;4.10;76.40;;;;;;4996075;28;20037;-75
2021/03/15 03:33:30;;;;;;;5.72;3.30;;;4.10;76.30;;;;;;4995904;28;20023;-75
2021/03/15 03:35:56;;;;;;;4.33;3.00;;;4.10;76.30;;;;;;4996056;28;20467;-75
2021/03/15 03:38:22;;;;;;;7.27;3.77;;;4.00;76.00;;;;;;4995878;28;20023;-75
2021/03/15 03:40:48;;;;;;;5.67;3.73;;;4.00;76.20;;;;;;4995717;28;20054;-75
2021/03/15 03:43:13;;;;;;;5.60;3.93;;;4.00;76.20;;;;;;4995608;28;20025;-76
2021/03/15 03:45:39;;;;;;;8.20;4.03;;;3.90;76.10;;;;;;4995710;28;20506;-76
2021/03/15 03:48:05;;;;;;;7.23;4.27;;;3.90;76.10;;;;;;4995438;28;20049;-76
2021/03/15 03:50:33;;;;;;;6.70;3.80;;;3.90;76.20;;;;;;4995714;28;20022;-75
2021/03/15 03:53:02;;;;;;;5.43;3.60;;;3.90;76.00;;;;;;4995375;28;20403;-75
2021/03/15 03:55:32;;;;;;;6.37;4.40;;;3.80;76.10;;;;;;4995286;28;20033;-75
2021/03/15 03:58:02;;;;;;;8.47;4.17;;;3.80;76.30;;;;;;4995214;28;20033;-75
2021/03/15 04:00:29;;;;;;;6.30;3.67;;;3.80;76.20;;;;;;4995311;28;20034;-75
2021/03/15 04:03:03;;;;;;;7.90;4.40;;;3.80;76.30;;;;;;4995209;28;20058;-76
2021/03/15 04:05:31;;;;;;;7.60;4.87;;;3.70;76.20;;;;;;4995409;28;20117;-75
2021/03/15 04:08:08;;;;;;;6.77;4.70;;;3.70;76.60;;;;;;4994903;28;20054;-75
2021/03/15 04:10:35;;;;;;;6.20;4.50;;;3.60;76.80;;;;;;4994828;28;20051;-76
2021/03/15 04:13:09;;;;;;;7.40;4.37;;;3.60;77.40;;;;;;4995165;28;20033;-79
2021/03/15 04:15:37;;;;;;;5.97;4.50;;;3.60;76.80;;;;;;4995187;28;20023;-73
2021/03/15 04:18:07;;;;;;;5.83;3.93;;;3.60;77.30;;;;;;4994911;28;20095;-74
2021/03/15 04:20:36;;;;;;;9.20;4.23;;;3.60;77.50;;;;;;4994871;28;20394;-74
2021/03/15 04:23:06;;;;;;;5.50;3.93;;;3.60;77.50;;;;;;4995144;28;20083;-74
2021/03/15 04:25:35;;;;;;;5.43;3.70;;;3.60;77.60;;;;;;4994995;28;20077;-74
2021/03/15 04:28:03;;;;;;;4.53;3.50;;;3.60;77.70;;;;;;4994832;28;20109;-74
2021/03/15 04:30:30;;;;;;;4.60;3.40;;;3.50;77.80;;;;;;4995018;28;20105;-74
2021/03/15 04:32:57;;;;;;;5.40;3.60;;;3.60;77.70;;;;;;4994712;28;20023;-74
2021/03/15 04:35:43;;;;;;;4.63;3.20;;;3.60;77.50;;;;;;4994695;28;20061;-80
2021/03/15 04:38:11;;;;;;;6.07;3.43;;;3.60;77.50;;;;;;4994676;28;20062;-74
2021/03/15 04:40:39;;;;;;;6.70;3.40;;;3.60;77.70;;;;;;4994569;28;20026;-74
2021/03/15 04:43:08;;;;;;;7.60;3.87;;;3.60;77.80;;;;;;4994545;28;20030;-73
2021/03/15 04:45:43;;;;;;;5.63;3.07;;;3.60;77.80;;;;;;4994095;28;20019;-73
2021/03/15 04:48:09;;;;;;;4.50;2.90;;;3.50;77.40;;;;;;4994253;28;20050;-74
2021/03/15 04:50:36;;;;;;;4.33;2.50;;;3.50;77.60;;;;;;4994573;28;20068;-73
2021/03/15 04:53:03;;;;;;;4.80;3.10;;;3.50;77.50;;;;;;4994394;28;20034;-73
2021/03/15 04:55:30;;;;;;;4.57;3.17;;;3.50;77.50;;;;;;4994455;28;20041;-73
2021/03/15 04:57:58;;;;;;;6.10;3.73;;;3.50;77.50;;;;;;4994222;28;20463;-73
2021/03/15 05:00:26;;;;;;;7.53;3.50;;;3.50;77.30;;;;;;4994393;28;20038;-73
2021/03/15 05:02:55;;;;;;;10.77;3.60;;;3.50;77.40;;;;;;4994130;28;20030;-73
2021/03/15 05:05:23;;;;;;;3.97;3.10;;;3.40;77.10;;;;;;4994136;28;20076;-73
2021/03/15 05:07:51;;;;;;;10.17;3.97;;;3.40;77.30;;;;;;4993999;28;20487;-73
2021/03/15 05:10:18;;;;;;;7.43;5.97;;;3.40;77.50;;;;;;4994013;28;20069;-73
2021/03/15 05:12:45;;;;;;;6.90;5.00;;;3.40;77.70;;;;;;4993887;28;20387;-73
2021/03/15 05:15:12;;;;;;;8.23;4.20;;;3.40;77.80;;;;;;4994089;28;20030;-73
2021/03/15 05:17:39;;;;;;;8.30;3.20;;;3.40;78.00;;;;;;4993947;28;20022;-74
2021/03/15 05:20:14;;;;;;;4.27;2.53;;;3.40;77.80;;;;;;4994000;28;20022;-73
2021/03/15 05:22:42;;;;;;;4.00;2.60;;;3.40;78.00;;;;;;4993855;28;20173;-73
2021/03/15 05:25:10;;;;;;;9.00;3.00;;;3.40;78.20;;;;;;4993415;28;20069;-73
2021/03/15 05:27:36;;;;;;;3.33;2.23;;;3.40;78.10;;;;;;4993882;28;20030;-74
2021/03/15 05:30:07;;;;;;;3.20;2.13;;;3.40;77.90;;;;;;4993901;28;20599;-73
2021/03/15 05:32:37;;;;;;;7.80;2.00;;;3.40;77.80;;;;;;4993526;28;20495;-74
2021/03/15 05:35:04;;;;;;;3.60;1.80;;;3.40;77.90;;;;;;4993715;28;20416;-73
2021/03/15 05:37:30;;;;;;;2.47;1.33;;;3.40;77.80;;;;;;4993686;28;20031;-73
2021/03/15 05:39:56;;;;;;;7.53;1.97;;;3.40;77.70;;;;;;4993389;28;20019;-73
2021/03/15 05:42:21;;;;;;;3.57;1.73;;;3.40;77.70;;;;;;5008734;28;20043;-73
2021/03/15 05:45:10;;;;;;;3.50;1.80;;;3.40;77.80;;;;;;4993738;28;20026;-74
2021/03/15 05:48:01;;;;;;;4.80;1.80;;;3.50;77.60;;;;;;4992347;28;20050;-73
2021/03/15 05:50:48;;;;;;;3.03;1.70;;;3.50;77.60;;;;;;4993725;28;20101;-73
2021/03/15 05:53:50;;;;;;;4.10;1.70;;;3.50;77.80;;;;;;4993673;28;20525;-73
2021/03/15 05:56:42;;;;;;;5.30;2.47;;;3.50;77.60;;;;;;4993226;28;20520;-74
2021/03/15 05:59:45;;;;;;;4.60;1.70;;;3.60;77.30;;;;;;4996353;28;20383;-73
2021/03/15 06:02:48;;;;;;;7.30;1.87;;;3.60;77.10;;;;;;4983290;28;20086;-74
2021/03/15 06:05:35;;;;;;;4.47;1.88;;;3.60;76.90;;;;;;4977854;28;20023;-74
2021/03/15 06:08:21;;;;;;;3.70;1.87;;;3.70;76.80;;;;;;5009054;28;20030;-74
2021/03/15 06:11:12;;;;;;;5.13;2.70;;;3.70;76.80;;;;;;4977766;28;20131;-74
2021/03/15 06:13:40;;;;;;;4.97;2.93;;;3.70;76.30;;;;;;4977896;28;20099;-74
2021/03/15 06:16:08;;;;;;;6.83;2.93;;;3.70;76.30;;;;;;4978151;28;20472;-74
2021/03/15 06:18:35;;;;;;;6.50;2.90;;;3.80;76.30;;;;;;4977819;28;20031;-74
2021/03/15 06:21:01;;;;;;;6.53;3.00;;;3.80;76.40;;;;;;4978092;28;20041;-74
2021/03/15 06:23:28;;;;;;;7.83;4.60;;;3.80;76.80;;;;;;4977588;28;20027;-74
2021/03/15 06:25:55;;;;;;;5.37;3.00;;;3.80;77.00;;;;;;4977512;28;20023;-74
2021/03/15 06:28:22;;;;;;;6.43;2.63;;;3.80;77.10;;;;;;4977317;28;20054;-74
2021/03/15 06:30:49;;;;;;;7.30;2.70;;;3.80;77.20;;;;;;4977706;28;20515;-74
2021/03/15 06:33:19;;;;;;;6.70;3.50;;;3.90;77.40;;;;;;4977605;28;20035;-74
2021/03/15 06:35:54;;;;;;;5.90;2.83;;;3.90;77.30;;;;;;4977679;28;20034;-74
2021/03/15 06:38:20;;;;;;;5.33;3.17;;;3.90;77.20;;;;;;4978067;28;20026;-75
2021/03/15 06:40:46;;;;;;;7.50;3.33;;;4.00;77.10;;;;;;4982204;28;20585;-73
2021/03/15 06:43:14;;;;;;;7.50;3.80;;;4.10;77.10;;;;;;4997044;28;20034;-74
2021/03/15 06:45:53;;;;;;;6.40;3.70;;;4.10;77.20;;;;;;4996743;28;20109;-81
2021/03/15 06:48:19;;;;;;;8.77;3.50;;;4.20;77.30;;;;;;4996504;28;20042;-74
2021/03/15 06:50:46;;;;;;;7.70;3.33;;;4.20;77.20;;;;;;4996669;28;20022;-74
2021/03/15 06:53:12;;;;;;;7.13;3.13;;;4.30;77.50;;;;;;4996260;28;20060;-74
2021/03/15 06:55:37;;;;;;;7.40;2.73;;;4.30;77.70;;;;;;4977820;28;20026;-74
2021/03/15 06:58:18;;;;;;;7.43;3.47;;;4.30;77.50;;;;;;4977100;28;20526;-74
2021/03/15 07:00:45;;;;;;;6.87;3.20;;;4.30;77.10;;;;;;4984618;28;20045;-77
2021/03/15 07:03:21;;;;;;;7.63;2.80;;;4.40;77.10;;;;;;4995700;28;20085;-75
2021/03/15 07:05:57;;;;;;;7.00;2.97;;;4.50;76.90;;;;;;4996215;28;20022;-74
2021/03/15 07:08:24;;;;;;;5.60;3.00;;;4.60;76.80;;;;;;4995703;28;20026;-74
2021/03/15 07:10:50;;;;;;;5.60;2.73;;;4.60;76.50;;;;;;4996114;28;20018;-77
2021/03/15 07:13:21;;;;;;;5.53;3.00;;;4.70;76.50;;;;;;4996025;28;20053;-73
2021/03/15 07:15:48;;;;;;;7.43;3.80;;;4.80;76.20;;;;;;4996020;28;20072;-74
2021/03/15 07:18:22;;;;;;;8.47;4.67;;;4.90;76.00;;;;;;4996284;28;20026;-80
2021/03/15 07:20:52;;;;;;;9.20;4.77;;;5.00;75.80;;;;;;4995816;28;20434;-74
2021/03/15 07:23:50;;;;;;;11.97;5.67;;;5.10;75.90;;;;;;4993944;28;20101;-74
2021/03/15 07:26:22;;;;;;;13.90;5.80;;;5.20;76.10;;;;;;4976101;28;20030;-80
2021/03/15 07:28:48;;;;;;;14.07;6.07;;;5.20;76.20;;;;;;4979622;28;20034;-78
2021/03/15 07:31:20;;;;;;;6.03;3.30;;;5.30;76.50;;;;;;4995101;28;20030;-78
2021/03/15 07:33:54;;;;;;;6.17;2.60;;;5.40;76.20;;;;;;4995170;28;20026;-75
2021/03/15 07:36:27;;;;;;;5.17;2.20;;;5.40;75.80;;;;;;4994880;28;20117;-78
2021/03/15 07:38:53;;;;;;;;;;;5.50;75.40;;;;;;4995016;28;20027;-81
2021/03/15 07:41:20;;;;;;;4.33;2.50;;;5.60;75.10;;;;;;4995060;28;19914;-79
2021/03/15 07:43:47;;;;;;;4.87;2.50;;;5.70;74.30;;;;;;4994976;28;20502;-80
2021/03/15 07:46:29;;;;;;;5.37;2.30;;;5.80;74.20;;;;;;4994971;28;20108;-79
2021/03/15 07:48:58;;;;;;;3.33;1.77;;;5.90;73.50;;;;;;4995016;28;20089;-79
2021/03/15 07:51:35;;;;;;;4.67;2.20;;;6.00;73.00;;;;;;4994873;28;20026;-76
2021/03/15 07:54:30;;;;;;;4.40;2.40;;;6.10;72.40;;;;;;4992865;28;20022;-80
2021/03/15 07:57:15;;;;;;;6.10;1.97;;;6.20;72.60;;;;;;4994699;28;20226;-76
2021/03/15 07:59:46;;;;;;;3.90;1.97;;;6.30;71.70;;;;;;4987572;28;20030;-73
2021/03/15 08:02:17;;;;;;;4.87;2.60;;;6.40;71.40;;;;;;4983784;28;20510;-76
2021/03/15 08:04:43;;;;;;;4.93;2.67;;;6.50;71.40;;;;;;4987854;28;20026;-74
2021/03/15 08:07:10;;;;;;;5.60;1.97;;;6.60;71.10;;;;;;4994854;28;20023;-74
2021/03/15 08:09:36;;;;;;;3.57;2.10;;;6.70;71.10;;;;;;4994764;28;20094;-71
2021/03/15 08:12:06;;;;;;;3.90;1.90;;;6.80;70.80;;;;;;4994573;28;20479;-71
2021/03/15 08:14:35;;;;;;;6.23;3.97;;;6.90;69.80;;;;;;4994967;28;20022;-71
2021/03/15 08:17:03;;;;;;;6.83;4.50;;;7.00;69.20;;;;;;4993892;28;20057;-72
2021/03/15 08:19:32;;;;;;;9.97;5.10;;;7.10;70.30;;;;;;4981179;28;20070;-73
2021/03/15 08:22:01;;;;;;;10.80;4.17;;;7.20;71.00;;;;;;4973947;28;20042;-74
2021/03/15 08:24:27;;;;;;;9.50;4.43;;;7.20;71.20;;;;;;4975041;28;20531;-73
2021/03/15 08:26:55;;;;;;;6.83;4.33;;;7.30;71.00;;;;;;4975356;28;20033;-72
2021/03/15 08:29:21;;;;;;;7.23;4.23;;;7.30;71.80;;;;;;4985326;28;20034;-73
2021/03/15 08:31:48;;;;;;;7.33;4.30;;;7.40;72.10;;;;;;4990569;28;20029;-77
2021/03/15 08:34:15;;;;;;;6.33;4.20;;;7.50;71.80;;;;;;4993021;28;20030;-74
2021/03/15 08:36:49;;;;;;;6.80;3.97;;;7.50;72.00;;;;;;4993467;28;20030;-73
2021/03/15 08:39:27;;;;;;;5.33;3.37;;;7.60;71.60;;;;;;4994635;28;20475;-73
2021/03/15 08:42:13;;;;;;;5.37;3.50;;;7.70;71.50;;;;;;4994670;28;20046;-73
2021/03/15 08:44:43;;;;;;;5.20;2.90;;;7.80;71.30;;;;;;4994668;28;20388;-73
2021/03/15 08:47:11;;;;;;;5.77;3.17;;;7.90;71.30;;;;;;4993081;28;20046;-72
2021/03/15 08:49:41;;;;;;;5.47;3.07;;;8.00;70.20;;;;;;4994162;28;20109;-74
2021/03/15 08:52:13;;;;;;;4.27;3.07;;;8.10;69.80;;;;;;4993108;28;20106;-73
2021/03/15 08:54:43;;;;;;;6.90;3.17;;;8.20;69.50;;;;;;4994652;28;20353;-73
2021/03/15 08:57:33;;;;;;;5.60;3.10;;;8.30;69.90;;;;;;4993540;28;20018;-72
2021/03/15 09:00:00;;;;;;;5.13;3.17;;;8.40;69.60;;;;;;4992967;28;20434;-72
2021/03/15 09:02:37;;;;;;;4.40;2.43;;;8.50;68.80;;;;;;4994122;28;20030;-73
2021/03/15 09:05:23;;;;;;;7.77;2.50;;;8.60;67.70;;;;;;4992570;28;20028;-72
2021/03/15 09:07:49;;;;;;;4.17;2.40;;;8.70;67.80;;;;;;4993852;28;20031;-72
2021/03/15 09:10:23;;;;;;;6.73;2.07;;;8.80;68.00;;;;;;4994222;28;20386;-73
2021/03/15 09:13:22;;;;;;;3.50;1.70;;;8.90;67.20;;;;;;4993962;28;20431;-71
2021/03/15 09:16:08;;;;;;;4.83;2.20;;;9.00;66.60;;;;;;4994264;28;20030;-72
2021/03/15 09:18:48;;;;;;;2.40;1.83;;;9.10;65.80;;;;;;4993910;28;20022;-72
2021/03/15 09:21:34;;;;;;;3.17;2.00;;;9.20;66.00;;;;;;4993936;28;20560;-72
2021/03/15 09:24:01;;;;;;;4.87;2.40;;;9.30;66.00;;;;;;4989936;28;20038;-72
2021/03/15 09:26:29;;;;;;;3.10;1.70;;;9.40;66.30;;;;;;4993773;28;20030;-72
2021/03/15 09:28:57;;;;;;;2.93;1.70;;;9.50;66.00;;;;;;4993665;28;20026;-72
2021/03/15 09:31:23;;;;;;;4.27;1.73;;;9.60;65.20;;;;;;4993607;28;20100;-73
2021/03/15 09:33:49;;;;;;;3.57;1.77;;;9.70;63.50;;;;;;4994003;28;20522;-73
2021/03/15 09:36:31;;;;;;;3.23;1.50;;;9.80;63.60;;;;;;4993773;28;20058;-73
2021/03/15 09:38:57;;;;;;;3.63;1.53;;;9.90;62.70;;;;;;4993615;28;20387;-72
2021/03/15 09:41:27;;;;;;;4.40;1.80;;;9.90;60.60;;;;;;5007605;28;20038;-72
2021/03/15 09:43:53;;;;;;;1.87;0.97;;;10.00;60.80;;;;;;4993193;28;20411;-72
2021/03/15 09:46:28;;;;;;;2.50;1.30;;;10.10;59.60;;;;;;4993374;28;20399;-74
2021/03/15 09:48:54;;;;;;;1.37;0.87;;;10.20;59.40;;;;;;4993581;28;20105;-73
2021/03/15 09:51:27;;;;;;;1.43;1.00;;;10.30;58.30;;;;;;4993708;28;20161;-73
2021/03/15 09:53:56;;;;;;;;;;;10.40;57.20;;;;;;4993866;28;20022;-73
2021/03/15 09:56:25;;;;;;;3.03;1.20;;;10.50;57.10;;;;;;4993083;28;19932;-74
2021/03/15 09:58:52;;;;;;;3.80;1.50;;;10.60;56.00;;;;;;4993614;28;20026;-74
2021/03/15 10:01:19;;;;;;;1.90;1.00;;;10.70;56.60;;;;;;4993404;28;20039;-73
2021/03/15 10:03:55;;;;;;;2.00;0.85;;;10.70;56.50;;;;;;4993202;28;20050;-73
2021/03/15 10:06:25;;;;;;;8.03;1.40;;;10.80;56.10;;;;;;4993506;28;20108;-73
2021/03/15 10:08:53;;;;;;;4.18;1.20;;;10.90;55.40;;;;;;4993448;28;20154;-73
2021/03/15 10:11:20;;;;;;;1.90;1.17;;;11.00;55.60;;;;;;4993727;28;20033;-73
2021/03/15 10:13:59;;;;;;;1.85;0.95;;;11.00;55.40;;;;;;5024913;28;20467;-73
2021/03/15 10:16:25;;;;;;;3.00;0.75;;;11.10;54.90;;;;;;4993526;28;20082;-73
2021/03/15 10:18:51;;;;;;;4.63;1.30;;;11.20;54.60;;;;;;4993549;28;20491;-73
2021/03/15 10:21:30;;;;;;;4.35;1.70;;;11.30;52.30;;;;;;4993662;28;20039;-72
2021/03/15 10:23:56;;;;;;;1.20;0.80;;;11.40;52.70;;;;;;4993243;28;20036;-73
2021/03/15 10:26:24;;;;;;;1.67;1.23;;;11.40;49.60;;;;;;4992139;28;20499;-72
2021/03/15 10:28:52;;;;;;;1.70;0.95;;;11.40;52.70;;;;;;4993233;28;20030;-72
2021/03/15 10:31:19;;;;;;;1.33;0.80;;;11.50;52.40;;;;;;4993347;28;20054;-72
2021/03/15 10:33:46;;;;;;;1.20;0.85;;;11.70;53.20;;;;;;4993278;28;20454;-72
2021/03/15 10:36:16;;;;;;;1.02;0.70;;;11.80;52.80;;;;;;4993044;28;20026;-72
2021/03/15 10:38:42;;;;;;;1.75;0.88;;;11.90;48.90;;;;;;4993432;28;20178;-72
2021/03/15 10:41:07;;;;;;;1.98;1.02;;;11.90;49.50;;;;;;4993120;28;20460;-72
2021/03/15 10:43:34;;;;;;;0.98;0.70;;;12.10;50.20;;;;;;4993417;28;20097;-73
2021/03/15 10:46:23;;;;;;;1.25;0.70;;;12.20;49.20;;;;;;4996787;28;20031;-72
2021/03/15 10:48:49;;;;;;;0.85;0.57;;;12.30;48.30;;;;;;4997042;28;20439;-73
2021/03/15 10:51:15;;;;;;;2.58;0.85;;;12.40;49.00;;;;;;4996865;28;20061;-72
2021/03/15 10:53:51;;;;;;;3.05;0.85;;;12.50;48.90;;;;;;4996747;28;20038;-72
2021/03/15 10:56:21;;;;;;;2.05;0.90;;;12.60;49.70;;;;;;4996378;28;20026;-72
2021/03/15 10:58:48;;;;;;;1.73;0.80;;;12.70;49.10;;;;;;4995890;28;20022;-71
2021/03/15 11:01:20;;;;;;;5.15;1.20;;;12.80;49.10;;;;;;5027254;28;20402;-67
2021/03/15 11:03:48;;;;;;;3.30;1.02;;;12.90;50.70;;;;;;4995224;28;20417;-67
2021/03/15 11:06:18;;;;;;;2.15;1.10;;;13.00;51.00;;;;;;4995147;28;20033;-68
2021/03/15 11:08:55;;;;;;;1.20;0.80;;;13.10;50.80;;;;;;4994873;28;20062;-68
2021/03/15 11:11:23;;;;;;;4.10;1.27;;;13.20;47.30;;;;;;4995073;28;20092;-68
2021/03/15 11:13:51;;;;;;;3.35;1.02;;;13.30;47.80;;;;;;4995181;28;20022;-68
2021/03/15 11:16:28;;;;;;;4.82;1.17;;;13.30;48.20;;;;;;4994985;28;20123;-67
2021/03/15 11:19:10;;;;;;;1.40;1.10;;;13.30;47.60;;;;;;4994799;28;20395;-68
2021/03/15 11:21:40;;;;;;;3.92;1.35;;;13.40;48.50;;;;;;4994780;28;20436;-68
2021/03/15 11:24:07;;;;;;;6.30;1.48;;;13.40;48.80;;;;;;4994987;28;20026;-68
2021/03/15 11:26:43;;;;;;;4.68;1.42;;;13.50;49.90;;;;;;4994812;28;20118;-68
2021/03/15 11:29:08;;;;;;;2.92;1.15;;;13.60;48.50;;;;;;4994756;28;20092;-68
2021/03/15 11:31:37;;;;;;;1.52;1.08;;;13.60;47.80;;;;;;4994596;28;20023;-68
2021/03/15 11:34:03;;;;;;;1.25;0.70;;;13.60;49.30;;;;;;4994236;28;20483;-68
2021/03/15 11:36:33;;;;;;;3.38;1.00;;;13.60;47.50;;;;;;4994112;28;20050;-68
2021/03/15 11:39:05;;;;;;;2.20;1.10;;;13.70;44.90;;;;;;4993973;28;20026;-68
2021/03/15 11:41:32;;;;;;;1.80;0.80;;;13.70;45.30;;;;;;4993965;28;20030;-67
2021/03/15 11:44:00;;;;;;;1.80;0.93;;;13.70;42.90;;;;;;4994066;28;20341;-67
2021/03/15 11:46:26;;;;;;;1.88;1.00;;;13.70;42.60;;;;;;4993916;28;20053;-67
2021/03/15 11:48:52;;;;;;;2.17;1.30;;;13.70;42.80;;;;;;4993725;28;20117;-67
2021/03/15 11:51:18;;;;;;;3.47;1.60;;;13.70;44.00;;;;;;4993743;28;20033;-67
2021/03/15 11:53:45;;;;;;;3.35;1.15;;;13.70;45.10;;;;;;4993918;28;20054;-67
2021/03/15 11:56:13;;;;;;;3.67;1.30;;;13.70;45.90;;;;;;4993976;28;20030;-67
2021/03/15 11:58:39;;;;;;;1.98;1.05;;;13.80;46.70;;;;;;4994135;28;20022;-67
2021/03/15 12:01:06;;;;;;;1.52;0.90;;;13.90;45.90;;;;;;4993593;28;20516;-67
2021/03/15 12:03:31;;;;;;;1.08;0.65;;;14.00;45.50;;;;;;4993593;28;20022;-68
2021/03/15 12:05:58;;;;;;;1.67;1.13;;;14.10;46.70;;;;;;4993789;28;20188;-68
2021/03/15 12:08:24;;;;;;;2.20;1.15;;;14.20;46.40;;;;;;4993497;28;20478;-68
2021/03/15 12:10:50;;;;;;;3.10;1.55;;;14.30;46.00;;;;;;4993914;28;20023;-68
2021/03/15 12:13:15;;;;;;;3.33;1.00;;;14.40;45.10;;;;;;4993601;28;20411;-68
2021/03/15 12:15:41;;;;;;;3.63;1.10;;;14.40;44.40;;;;;;4991693;28;20123;-68
2021/03/15 12:18:07;;;;;;;2.72;1.25;;;14.40;44.20;;;;;;4993576;28;20085;-68
2021/03/15 12:20:36;;;;;;;1.83;1.08;;;14.50;45.00;;;;;;4993276;28;20026;-68
2021/03/15 12:23:03;;;;;;;4.75;1.35;;;14.50;44.70;;;;;;4993107;28;20183;-68
2021/03/15 12:25:30;;;;;;;2.50;1.13;;;14.60;45.70;;;;;;4992926;28;20050;-68
2021/03/15 12:27:56;;;;;;;4.00;1.20;;;14.70;44.00;;;;;;4992696;28;20368;-68
2021/03/15 12:30:23;;;;;;;3.15;1.20;;;14.80;43.60;;;;;;4993018;28;20058;-67
2021/03/15 12:32:52;;;;;;;2.83;1.40;;;14.80;43.10;;;;;;4992589;28;20028;-67
2021/03/15 12:35:18;;;;;;;2.90;1.10;;;14.80;42.90;;;;;;4991631;28;20028;-67
2021/03/15 12:37:45;;;;;;;2.17;1.00;;;14.80;42.10;;;;;;4990885;28;20149;-67
2021/03/15 12:40:10;;;;;;;4.80;1.05;;;14.80;42.00;;;;;;4991310;28;20132;-68
2021/03/15 12:42:36;;;;;;;1.83;1.10;;;14.80;43.10;;;;;;4992380;28;20076;-68
2021/03/15 12:45:06;;;;;;;2.30;0.93;;;14.70;42.30;;;;;;4992702;28;20098;-68
2021/03/15 12:47:49;;;;;;;1.63;1.15;;;14.70;43.30;;;;;;4992730;28;20455;-68
2021/03/15 12:50:14;;;;;;;2.97;1.02;;;14.80;42.40;;;;;;4992852;28;20054;-67
2021/03/15 12:52:40;;;;;;;3.47;1.55;;;14.80;42.80;;;;;;4992869;28;20065;-67
2021/03/15 12:55:07;;;;;;;8.60;1.15;;;14.70;42.70;;;;;;4993107;28;20057;-69
2021/03/15 12:57:33;;;;;;;1.63;0.88;;;14.70;43.30;;;;;;4993307;28;20058;-69
2021/03/15 12:59:58;;;;;;;1.85;0.90;;;14.60;40.60;;;;;;4989505;28;20061;-71
2021/03/15 13:02:24;;;;;;;1.88;0.88;;;14.50;42.20;;;;;;4991705;28;20039;-68
2021/03/15 13:04:50;;;;;;;1.90;0.80;;;14.40;40.90;;;;;;4991338;28;20018;-68
2021/03/15 13:07:15;;;;;;;2.35;0.70;;;14.30;40.40;;;;;;4992644;28;20030;-69
2021/03/15 13:09:41;;;;;;;2.67;0.70;;;14.10;40.20;;;;;;4992532;28;20026;-68
2021/03/15 13:12:08;;;;;;;2.08;0.65;;;14.00;41.60;;;;;;4992751;28;20448;-71